Benchley, Texas
Current Conditions -  °F | °C
As of 5:53 AM on Tuesday 27 Jan 2015 (Local Time) from KCLL Reporting Station
Clear Clear  
Wind Chill: 48°   Ceiling: Unl
Heat Index: 48°   Visibility: 10mi
Dew Point: 38°   Wind: 3mph
Humidity: 68%   Direction: 240°WSW
Pressure: 30.12"   Gusts: NA
Location:  30.6361°N, 96.3666°W
Report Text: KCLL 271153Z AUTO 24003KT 10SM CLR 09/03 A3012 RMK AO2 SLP196 T00890033 10111 20072 55002
Loading
Personal Weather Stations






























Interactive Weather Map New forecast layout! Learn more

10-Day Weather Forecast

Advertisements
Track Severe Weather on mobile